»·PEaware :: N800DW KBWI-MMUN

N800DW :: KBWI-MMUN

FLIGHT INFORMATION

Flight Status: Arrived
Operator: Privately registered:
United States
More flights under this callsign
Pilot: Scott L. (17677)
Aircraft: Unknown
(EPIC)
More flights by this aircraft type
Origin: KBWI Baltimore-Washington Intl
United States
Destination: MMUN Cancun Intl
Mexico
More flights between these airports :: More routes between these airports
Route: TERPZ6 GSO J75 TAY PIE KARTR FIS B646 CANOA UB879 NOSAT
File this flight plan on PilotEdge
Remarks:
Altitude:
(Current/Filed)
28,000ft
Speed:
(Current/Filed)
300kts
Departed: 20-Sep-18 05:28 AM
Arrived: 20-Sep-18 07:57 AM
Distance/Time
Traveled:
2016nm/2:29
Distance/Time
To Go:
Arrived

Flight Plot

Page will automatically refresh every two minutes.

Flight plan parsing failed; only flown route is shown


Map Options




Map Legend


Flown Route
Filed Route
Departure Airport
Arrival Airport
Navaid (VOR, NDB)
Fix

Horizontal Profiles

Position Reports

Time Latitude Longitude Heading Altitude Ground
Speed
20-Sep-18 05:29 39.218860 -76.989957 271 14228ft 234kts
20-Sep-18 05:30 39.220888 -77.074499 271 16653ft 244kts
20-Sep-18 05:31 39.199138 -77.151243 219 18722ft 251kts
20-Sep-18 05:32 39.141952 -77.204560 213 20493ft 259kts
20-Sep-18 05:33 39.080876 -77.254598 208 22003ft 265kts
20-Sep-18 05:34 39.015636 -77.300780 208 23295ft 271kts
20-Sep-18 05:35 38.949687 -77.346965 208 24380ft 276kts
20-Sep-18 05:36 38.891812 -77.387366 208 25189ft 280kts
20-Sep-18 05:37 38.836759 -77.425715 208 25856ft 283kts
20-Sep-18 05:38 38.780037 -77.465158 208 26457ft 285kts
20-Sep-18 05:39 38.709832 -77.505651 196 27076ft 288kts
20-Sep-18 05:40 38.632848 -77.533552 195 27630ft 291kts
20-Sep-18 05:41 38.554547 -77.561077 195 28111ft 293kts
20-Sep-18 05:42 38.475094 -77.588843 195 28229ft 304kts
20-Sep-18 05:43 38.392684 -77.617567 195 28228ft 311kts
20-Sep-18 05:44 38.309181 -77.647667 206 28205ft 315kts
20-Sep-18 05:45 38.242049 -77.712625 218 28218ft 315kts
20-Sep-18 05:46 38.174749 -77.784016 219 28219ft 316kts
20-Sep-18 05:47 38.107504 -77.855789 219 28219ft 316kts
20-Sep-18 05:48 38.040242 -77.927464 219 28219ft 316kts
20-Sep-18 05:49 37.984082 -77.987177 219 28219ft 316kts
20-Sep-18 05:50 37.905845 -78.070157 219 28264ft 316kts
20-Sep-18 05:51 37.853548 -78.125491 219 28264ft 316kts
20-Sep-18 05:52 37.786091 -78.196711 219 28264ft 316kts
20-Sep-18 05:53 37.730357 -78.255422 219 28264ft 316kts
20-Sep-18 05:54 37.651586 -78.338197 219 28264ft 317kts
20-Sep-18 05:55 37.595236 -78.397267 219 28219ft 318kts
20-Sep-18 05:56 37.527642 -78.467966 219 28219ft 317kts
20-Sep-18 05:57 37.448373 -78.550480 219 28219ft 317kts
20-Sep-18 05:58 37.391965 -78.608735 219 28219ft 317kts
20-Sep-18 05:59 37.327508 -78.675137 218 28219ft 317kts
20-Sep-18 06:00 37.259383 -78.745149 218 28219ft 317kts
20-Sep-18 06:01 37.191198 -78.815055 218 28219ft 317kts
20-Sep-18 06:02 37.123353 -78.884445 218 28219ft 317kts
20-Sep-18 06:03 37.055059 -78.954128 218 28219ft 317kts
20-Sep-18 06:04 36.986875 -79.023532 218 28219ft 317kts
20-Sep-18 06:05 36.919639 -79.092239 219 28246ft 316kts
20-Sep-18 06:06 36.853666 -79.159891 219 28246ft 317kts
20-Sep-18 06:07 36.786079 -79.229053 219 28246ft 317kts
20-Sep-18 06:08 36.717729 -79.298834 219 28246ft 317kts
20-Sep-18 06:09 36.649584 -79.368240 219 28246ft 317kts
20-Sep-18 06:10 36.581492 -79.437429 219 28237ft 318kts
20-Sep-18 06:11 36.513030 -79.506831 219 28237ft 317kts
20-Sep-18 06:12 36.444840 -79.575794 219 28237ft 317kts
20-Sep-18 06:13 36.376352 -79.644898 219 28237ft 317kts
20-Sep-18 06:14 36.309874 -79.711816 218 28237ft 317kts
20-Sep-18 06:15 36.241792 -79.780193 218 28246ft 317kts
20-Sep-18 06:16 36.173347 -79.848775 218 28246ft 317kts
20-Sep-18 06:17 36.104936 -79.917167 218 28246ft 317kts
20-Sep-18 06:18 36.033635 -79.980389 204 28251ft 317kts
20-Sep-18 06:19 35.952758 -80.023127 202 28246ft 317kts
20-Sep-18 06:20 35.881717 -80.059193 201 28237ft 318kts
20-Sep-18 06:21 35.497557 -80.252108 201 28237ft 318kts
20-Sep-18 06:22 33.915516 -81.025943 201 28237ft 318kts
20-Sep-18 06:23 33.833541 -81.065639 202 28237ft 318kts
20-Sep-18 06:24 33.751851 -81.106079 202 28237ft 318kts
20-Sep-18 06:25 33.670144 -81.146490 202 28201ft 319kts
20-Sep-18 06:26 33.588341 -81.186870 202 28200ft 318kts
20-Sep-18 06:27 33.506741 -81.227067 202 28200ft 318kts
20-Sep-18 06:28 33.425060 -81.267222 202 28200ft 318kts
20-Sep-18 06:29 33.343461 -81.307255 202 28200ft 318kts
20-Sep-18 06:30 33.262134 -81.347074 202 28209ft 318kts
20-Sep-18 06:31 33.180519 -81.386953 202 28209ft 318kts
20-Sep-18 06:32 33.098671 -81.426866 202 28209ft 318kts
20-Sep-18 06:33 33.016874 -81.466688 202 28209ft 318kts
20-Sep-18 06:34 32.935051 -81.506449 202 28209ft 318kts
20-Sep-18 06:35 32.854952 -81.545291 202 28200ft 319kts
20-Sep-18 06:36 32.773011 -81.584937 202 28200ft 318kts
20-Sep-18 06:37 32.691883 -81.624106 202 28200ft 318kts
20-Sep-18 06:38 31.962535 -81.971544 198 28201ft 319kts
20-Sep-18 06:39 30.520789 -82.546540 198 28200ft 319kts
20-Sep-18 06:40 30.433858 -82.556146 183 28156ft 320kts
20-Sep-18 06:41 30.344833 -82.561098 182 28155ft 322kts
20-Sep-18 06:42 30.255781 -82.565736 182 28155ft 322kts
20-Sep-18 06:43 30.166357 -82.570356 182 28155ft 322kts
20-Sep-18 06:44 30.077112 -82.574954 182 28155ft 322kts
20-Sep-18 06:45 30.040602 -82.576833 182 28155ft 322kts
20-Sep-18 06:46 28.313480 -82.664168 182 28137ft 323kts
20-Sep-18 06:47 27.909198 -82.680196 162 28148ft 322kts
20-Sep-18 06:48 26.318344 -81.905986 156 28137ft 323kts
20-Sep-18 06:49 26.296648 -81.895610 156 28137ft 323kts
20-Sep-18 06:50 25.509621 -81.520685 169 28114ft 324kts
20-Sep-18 06:51 25.421446 -81.535492 192 28118ft 323kts
20-Sep-18 06:52 25.334476 -81.559835 194 28118ft 323kts
20-Sep-18 06:53 25.247706 -81.584905 194 28118ft 323kts
20-Sep-18 06:54 25.160916 -81.610024 194 28118ft 323kts
20-Sep-18 06:55 25.073922 -81.635173 194 28118ft 323kts
20-Sep-18 06:56 24.987416 -81.660145 194 28109ft 324kts
20-Sep-18 06:57 24.900650 -81.685156 194 28109ft 324kts
20-Sep-18 06:58 24.815412 -81.709694 194 28109ft 323kts
20-Sep-18 06:59 24.728566 -81.734656 194 28109ft 323kts
20-Sep-18 07:00 24.641753 -81.759572 194 28109ft 323kts
20-Sep-18 07:01 24.558128 -81.791294 225 28108ft 323kts
20-Sep-18 07:02 24.511400 -81.875209 242 28118ft 323kts
20-Sep-18 07:03 24.010641 -83.026587 244 28123ft 323kts
20-Sep-18 07:04 23.960573 -83.108025 233 28118ft 324kts
20-Sep-18 07:05 22.920890 -84.615381 232 28118ft 324kts
20-Sep-18 07:06 22.606635 -85.062441 232 28118ft 324kts
20-Sep-18 07:07 21.977694 -85.961128 232 28121ft 324kts
20-Sep-18 07:08 21.914948 -86.026617 221 27727ft 295kts
20-Sep-18 07:09 21.856902 -86.081634 221 26318ft 268kts
20-Sep-18 07:10 21.805547 -86.135629 228 24913ft 253kts
20-Sep-18 07:11 21.759486 -86.190523 227 23385ft 246kts
20-Sep-18 07:12 21.713897 -86.244432 227 21788ft 243kts
20-Sep-18 07:13 21.661822 -86.305825 227 20234ft 329kts
20-Sep-18 07:14 21.596183 -86.383149 227 18799ft 361kts
20-Sep-18 07:15 21.529658 -86.461417 227 17382ft 350kts
20-Sep-18 07:16 21.465483 -86.536812 227 15232ft 338kts
20-Sep-18 07:17 21.403244 -86.609825 227 13026ft 328kts
20-Sep-18 07:18 21.343718 -86.679559 227 10868ft 317kts
20-Sep-18 07:19 21.285534 -86.747632 227 8673ft 307kts
20-Sep-18 07:20 21.228381 -86.814414 227 6478ft 302kts
20-Sep-18 07:21 21.190316 -86.858844 227 6059ft 257kts
20-Sep-18 07:22 21.190316 -86.858844 227 6059ft 257kts
20-Sep-18 07:23 21.190316 -86.858844 227 6059ft 257kts
20-Sep-18 07:24 21.190316 -86.858844 227 6059ft 257kts
20-Sep-18 07:25 21.190316 -86.858844 227 6059ft 257kts
20-Sep-18 07:26 21.190316 -86.858844 227 6059ft 257kts
20-Sep-18 07:27 21.190316 -86.858844 227 6059ft 257kts
20-Sep-18 07:28 21.190316 -86.858844 227 6059ft 257kts
20-Sep-18 07:29 21.190316 -86.858844 227 6059ft 257kts
20-Sep-18 07:30 21.190316 -86.858844 227 6059ft 257kts
20-Sep-18 07:31 21.190316 -86.858844 227 6059ft 257kts
20-Sep-18 07:32 21.190316 -86.858844 227 6059ft 257kts
20-Sep-18 07:33 21.190316 -86.858844 227 6059ft 257kts
20-Sep-18 07:34 21.190316 -86.858844 227 6059ft 257kts
20-Sep-18 07:35 21.190316 -86.858844 227 6059ft 257kts
20-Sep-18 07:36 21.190316 -86.858844 227 6059ft 257kts
20-Sep-18 07:37 21.190316 -86.858844 227 6059ft 257kts
20-Sep-18 07:38 21.190316 -86.858844 227 6059ft 257kts
20-Sep-18 07:39 21.190316 -86.858844 227 6059ft 257kts
20-Sep-18 07:40 21.190316 -86.858844 227 6059ft 257kts
20-Sep-18 07:41 21.190316 -86.858844 227 6059ft 257kts
20-Sep-18 07:42 21.190316 -86.858844 227 6059ft 257kts
20-Sep-18 07:43 21.190316 -86.858844 227 6059ft 257kts
20-Sep-18 07:44 21.190316 -86.858844 227 6059ft 257kts
20-Sep-18 07:45 21.190316 -86.858844 227 6059ft 257kts
20-Sep-18 07:46 21.188094 -86.914709 294 5429ft 248kts
20-Sep-18 07:47 21.221848 -86.979267 302 3780ft 244kts
20-Sep-18 07:48 21.255997 -87.035762 303 3058ft 196kts
20-Sep-18 07:49 21.284330 -87.084958 278 3057ft 207kts
20-Sep-18 07:50 21.250047 -87.129441 218 3065ft 217kts
20-Sep-18 07:51 21.199606 -87.111243 127 3065ft 221kts
20-Sep-18 07:52 21.164482 -87.056942 123 3064ft 223kts
20-Sep-18 07:53 21.132654 -87.006060 123 2738ft 179kts
20-Sep-18 07:54 21.111490 -86.972177 122 2024ft 108kts
20-Sep-18 07:55 21.094477 -86.944843 123 1449ft 126kts
20-Sep-18 07:56 21.074729 -86.913322 122 765ft 127kts
20-Sep-18 07:57 21.057374 -86.885533 119 171ft 82kts
20-Sep-18 07:58 21.044956 -86.865752 120 25ft 52kts
20-Sep-18 07:59 21.039149 -86.862943 203 25ft 4kts
20-Sep-18 08:00 21.039142 -86.862946 202 25ft 0kts
20-Sep-18 08:01 21.039142 -86.862946 202 25ft 0kts
20-Sep-18 08:02 21.039142 -86.862946 202 25ft 0kts
20-Sep-18 08:03 34.218338 -118.494298 175 805ft 0kts
20-Sep-18 08:04 34.218338 -118.494298 175 805ft 0kts
20-Sep-18 08:05 34.218338 -118.494298 175 805ft 0kts
20-Sep-18 08:06 34.218338 -118.494298 175 805ft 0kts
20-Sep-18 08:07 34.218338 -118.494298 175 805ft 0kts
20-Sep-18 08:08 34.218338 -118.494298 175 805ft 0kts
20-Sep-18 08:09 34.218338 -118.494298 175 805ft 0kts
20-Sep-18 08:10 34.218338 -118.494298 175 805ft 0kts

Navigation Log

Ident Type
Flight plan parsing failed, navigation log unavailable